createdAt,value
2022-08-22T00:02:57.375Z,100.00
2022-08-22T00:03:33.102Z,100.00
2022-08-22T00:08:55.663Z,100.00
2022-08-22T00:14:14.729Z,100.00
2022-08-22T00:19:33.110Z,100.00
2022-08-22T00:24:41.975Z,100.00
2022-08-22T00:29:50.089Z,100.00
2022-08-22T00:35:04.140Z,100.00
2022-08-22T00:40:25.313Z,100.00
2022-08-22T00:45:53.048Z,100.00
2022-08-22T00:51:07.715Z,100.00
2022-08-22T00:56:29.207Z,100.00
2022-08-22T01:01:36.563Z,100.00
2022-08-22T01:07:11.235Z,100.00
2022-08-22T01:12:33.427Z,100.00
2022-08-22T01:17:36.112Z,100.00
2022-08-22T01:23:16.237Z,100.00
2022-08-22T01:28:46.972Z,100.00
2022-08-22T01:34:18.905Z,100.00
2022-08-22T01:39:42.120Z,100.00
2022-08-22T01:45:12.381Z,100.00
2022-08-22T01:50:32.559Z,100.00
2022-08-22T01:55:46.211Z,100.00
2022-08-22T02:01:14.946Z,100.00
2022-08-22T02:06:44.434Z,100.00
2022-08-22T02:11:54.951Z,100.00
2022-08-22T02:17:13.480Z,100.00
2022-08-22T02:22:29.697Z,100.00
2022-08-22T02:28:08.524Z,100.00
2022-08-22T02:33:34.754Z,100.00
2022-08-22T02:39:05.082Z,100.00
2022-08-22T02:44:28.052Z,100.00
2022-08-22T02:49:43.891Z,100.00
2022-08-22T02:55:05.965Z,100.00
2022-08-22T03:00:32.770Z,100.00
2022-08-22T03:05:35.901Z,100.00
2022-08-22T03:10:54.694Z,100.00
2022-08-22T03:16:10.552Z,100.00
2022-08-22T03:21:35.491Z,100.00
2022-08-22T03:26:53.480Z,100.00
2022-08-22T03:32:11.954Z,100.00
2022-08-22T03:37:23.922Z,100.00
2022-08-22T03:43:12.897Z,100.00
2022-08-22T03:48:38.368Z,100.00
2022-08-22T03:54:12.005Z,100.00
2022-08-22T03:59:58.714Z,100.00
2022-08-22T04:05:20.752Z,100.00
2022-08-22T04:10:47.147Z,100.00
2022-08-22T04:15:55.617Z,100.00
2022-08-22T04:21:16.662Z,100.00
2022-08-22T04:26:19.370Z,100.00
2022-08-22T04:31:27.984Z,100.00
2022-08-22T04:36:46.078Z,100.00
2022-08-22T04:42:36.677Z,100.00
2022-08-22T04:47:56.736Z,100.00
2022-08-22T04:53:08.568Z,100.00
2022-08-22T04:58:33.215Z,100.00
2022-08-22T05:03:44.858Z,100.00
2022-08-22T05:08:53.979Z,100.00
2022-08-22T05:14:02.594Z,100.00
2022-08-22T05:19:16.956Z,100.00
2022-08-22T05:24:31.849Z,100.00
2022-08-22T05:29:35.008Z,100.00
2022-08-22T05:34:42.006Z,100.00
2022-08-22T05:39:54.988Z,100.00
2022-08-22T05:44:58.862Z,100.00
2022-08-22T05:50:14.501Z,100.00
2022-08-22T05:55:47.351Z,100.00
2022-08-22T06:01:00.045Z,100.00
2022-08-22T06:06:13.418Z,100.00
2022-08-22T06:11:22.323Z,100.00
2022-08-22T06:16:56.850Z,100.00
2022-08-22T06:22:00.967Z,100.00
2022-08-22T06:27:12.986Z,100.00
2022-08-22T06:32:58.309Z,100.00
2022-08-22T06:38:03.816Z,100.00
2022-08-22T06:43:07.126Z,100.00
2022-08-22T06:48:09.977Z,100.00
2022-08-22T06:53:33.023Z,100.00
2022-08-22T06:58:46.411Z,100.00
2022-08-22T07:03:55.297Z,100.00
2022-08-22T07:08:58.874Z,100.00
2022-08-22T07:14:05.755Z,100.00
2022-08-22T07:19:13.434Z,100.00
2022-08-22T07:24:26.897Z,100.00
2022-08-22T07:29:44.607Z,100.00
2022-08-22T07:34:50.152Z,100.00
2022-08-22T07:40:09.822Z,100.00
2022-08-22T07:45:39.030Z,100.00
2022-08-22T07:51:06.051Z,100.00
2022-08-22T07:56:29.246Z,100.00
2022-08-22T08:01:33.069Z,100.00
2022-08-22T08:06:37.011Z,100.00
2022-08-22T08:11:42.594Z,100.00
2022-08-22T08:17:10.760Z,100.00
2022-08-22T08:22:18.921Z,100.00
2022-08-22T08:27:45.160Z,100.00
2022-08-22T08:32:57.530Z,100.00
2022-08-22T08:38:24.100Z,100.00
2022-08-22T08:44:00.816Z,100.00
2022-08-22T08:49:33.581Z,100.00
2022-08-22T08:54:55.742Z,100.00
2022-08-22T09:00:12.284Z,100.00
2022-08-22T09:06:09.735Z,100.00
2022-08-22T09:11:12.419Z,100.00
2022-08-22T09:16:36.695Z,100.00
2022-08-22T09:22:00.976Z,100.00
2022-08-22T09:27:33.082Z,100.00
2022-08-22T09:32:55.676Z,100.00
2022-08-22T09:38:03.208Z,100.00
2022-08-22T09:43:11.625Z,100.00
2022-08-22T09:48:29.768Z,100.00
2022-08-22T09:53:56.570Z,100.00
2022-08-22T09:59:06.658Z,100.00
2022-08-22T10:04:21.511Z,100.00
2022-08-22T10:09:31.334Z,100.00
2022-08-22T10:15:00.198Z,100.00
2022-08-22T10:20:10.224Z,100.00
2022-08-22T10:25:35.276Z,100.00
2022-08-22T10:31:10.497Z,100.00
2022-08-22T10:36:20.934Z,100.00
2022-08-22T10:41:26.488Z,100.00
2022-08-22T10:46:42.270Z,99.78
2022-08-22T10:51:57.165Z,97.43
2022-08-22T10:57:14.510Z,96.09
2022-08-22T11:03:01.050Z,92.98
2022-08-22T11:08:27.285Z,89.82
2022-08-22T11:13:30.627Z,90.23
2022-08-22T11:18:57.946Z,89.35
2022-08-22T11:24:06.568Z,87.52
2022-08-22T11:29:58.174Z,86.86
2022-08-22T11:35:25.916Z,85.39
2022-08-22T11:40:42.842Z,86.22
2022-08-22T11:45:52.466Z,85.24
2022-08-22T11:51:00.670Z,84.49
2022-08-22T11:56:10.448Z,85.07
2022-08-22T12:01:21.973Z,84.28
2022-08-22T12:06:50.294Z,83.51
2022-08-22T12:12:12.610Z,83.18
2022-08-22T12:17:50.709Z,81.36
2022-08-22T12:23:49.492Z,80.36
2022-08-22T12:29:01.931Z,80.16
2022-08-22T12:34:39.399Z,77.64
2022-08-22T12:40:14.296Z,77.35
2022-08-22T12:45:22.181Z,77.41
2022-08-22T12:50:49.822Z,75.12
2022-08-22T12:56:20.512Z,75.44
2022-08-22T13:01:34.351Z,76.21
2022-08-22T13:06:37.906Z,74.69
2022-08-22T13:11:44.484Z,73.77
2022-08-22T13:16:52.515Z,72.68
2022-08-22T13:22:09.483Z,70.67
2022-08-22T13:27:51.038Z,69.57
2022-08-22T13:32:56.834Z,69.95
2022-08-22T13:38:12.340Z,70.73
2022-08-22T13:43:22.479Z,69.30
2022-08-22T13:48:30.399Z,69.70
2022-08-22T13:53:49.411Z,69.38
2022-08-22T13:59:21.869Z,69.22
2022-08-22T14:04:41.055Z,69.56
2022-08-22T14:09:54.445Z,68.93
2022-08-22T14:15:01.326Z,68.96
2022-08-22T14:20:11.701Z,69.73
2022-08-22T14:25:22.078Z,70.51
2022-08-22T14:30:33.652Z,71.69
2022-08-22T14:35:52.666Z,73.27
2022-08-22T14:41:03.311Z,73.73
2022-08-22T14:46:12.689Z,74.98
2022-08-22T14:51:24.460Z,75.64
2022-08-22T14:56:30.228Z,76.63
2022-08-22T15:01:51.550Z,77.10
2022-08-22T15:06:58.745Z,77.61
2022-08-22T15:12:05.654Z,79.02
2022-08-22T15:17:10.374Z,79.27
2022-08-22T15:22:28.948Z,77.73
2022-08-22T15:27:35.036Z,73.24
2022-08-22T15:32:41.759Z,71.91
2022-08-22T15:38:27.743Z,69.66
2022-08-22T15:43:36.028Z,68.49
2022-08-22T15:48:41.471Z,65.20
2022-08-22T15:54:16.215Z,64.14
2022-08-22T15:59:53.642Z,60.55
2022-08-22T16:05:09.482Z,57.61
2022-08-22T16:10:21.181Z,54.91
2022-08-22T16:15:54.088Z,55.12
2022-08-22T16:21:01.180Z,54.95
2022-08-22T16:26:03.793Z,55.28
2022-08-22T16:31:34.164Z,55.77
2022-08-22T16:36:51.092Z,56.58
2022-08-22T16:42:18.353Z,56.85
2022-08-22T16:47:41.810Z,57.73
2022-08-22T16:53:08.726Z,58.76
2022-08-22T16:58:57.865Z,60.85
2022-08-22T17:04:25.078Z,63.21
2022-08-22T17:09:42.117Z,65.36
2022-08-22T17:15:06.596Z,67.69
2022-08-22T17:20:23.039Z,70.25
2022-08-22T17:25:34.954Z,73.09
2022-08-22T17:30:55.422Z,75.07
2022-08-22T17:36:26.378Z,77.27
2022-08-22T17:41:48.951Z,79.65
2022-08-22T17:47:01.939Z,81.53
2022-08-22T17:52:11.257Z,83.09
2022-08-22T17:57:27.891Z,84.62
2022-08-22T18:02:54.962Z,86.06
2022-08-22T18:08:38.471Z,87.24
2022-08-22T18:14:05.025Z,88.64
2022-08-22T18:19:14.098Z,89.56
2022-08-22T18:24:36.301Z,90.21
2022-08-22T18:29:54.692Z,90.99
2022-08-22T18:35:19.817Z,91.48
2022-08-22T18:40:46.887Z,92.00
2022-08-22T18:45:58.182Z,92.54
2022-08-22T18:51:23.870Z,93.15
2022-08-22T18:56:50.170Z,93.60
2022-08-22T19:02:37.380Z,94.36
2022-08-22T19:07:55.578Z,94.98
2022-08-22T19:13:39.585Z,95.22
2022-08-22T19:18:53.106Z,95.77
2022-08-22T19:23:56.041Z,96.80
2022-08-22T19:29:24.392Z,97.62
2022-08-22T19:34:30.067Z,98.14
2022-08-22T19:39:41.859Z,99.00
2022-08-22T19:45:05.510Z,99.88
2022-08-22T19:50:23.674Z,100.00
2022-08-22T19:55:38.526Z,100.00
2022-08-22T20:00:59.362Z,100.00
2022-08-22T20:06:33.781Z,100.00
2022-08-22T20:11:42.723Z,100.00
2022-08-22T20:17:07.754Z,100.00
2022-08-22T20:22:27.733Z,100.00
2022-08-22T20:27:43.206Z,100.00
2022-08-22T20:32:47.573Z,100.00
2022-08-22T20:38:08.912Z,100.00
2022-08-22T20:43:32.484Z,100.00
2022-08-22T20:48:39.571Z,100.00
2022-08-22T20:53:42.795Z,100.00
2022-08-22T20:58:49.077Z,100.00
2022-08-22T21:03:53.207Z,100.00
2022-08-22T21:09:35.367Z,100.00
2022-08-22T21:14:46.076Z,100.00
2022-08-22T21:19:49.483Z,100.00
2022-08-22T21:24:54.517Z,100.00
2022-08-22T21:30:00.173Z,100.00
2022-08-22T21:35:07.263Z,100.00
2022-08-22T21:40:14.849Z,100.00
2022-08-22T21:45:49.442Z,100.00
2022-08-22T21:50:52.541Z,100.00
2022-08-22T21:56:28.541Z,100.00
2022-08-22T22:01:32.985Z,100.00
2022-08-22T22:06:35.692Z,100.00
2022-08-22T22:11:39.708Z,100.00
2022-08-22T22:16:42.425Z,100.00
2022-08-22T22:21:44.988Z,100.00
2022-08-22T22:26:47.732Z,100.00
2022-08-22T22:31:50.499Z,100.00
2022-08-22T22:36:53.853Z,100.00
2022-08-22T22:41:56.566Z,100.00
2022-08-22T22:47:00.752Z,100.00
2022-08-22T22:52:04.012Z,100.00
2022-08-22T22:57:07.468Z,100.00
2022-08-22T23:02:19.395Z,100.00
2022-08-22T23:07:24.529Z,100.00
2022-08-22T23:12:27.437Z,100.00
2022-08-22T23:17:30.434Z,100.00
2022-08-22T23:22:33.633Z,100.00
2022-08-22T23:27:36.725Z,100.00
2022-08-22T23:32:39.477Z,100.00
2022-08-22T23:37:42.092Z,100.00
2022-08-22T23:42:44.874Z,100.00
2022-08-22T23:47:47.906Z,100.00
2022-08-22T23:52:50.754Z,100.00
2022-08-22T23:57:53.462Z,100.00
